Time,TemperatureF,DewpointF,PressureIn,WindDirection,WindDirectionDegrees,WindSpeedMPH,WindSpeedGustMPH,Humidity,HourlyPrecipIn,Conditions,Clouds,dailyrainin,SoftwareType,DateUTC
2013-01-20 00:01:00,49.3,41.7,30.22,SW,219,5.0,10.0,75,0.00,,,0.00,Wunderground v.1.15,2013-01-20 06:01:00,
2013-01-20 00:07:00,49.3,41.7,30.22,SW,226,5.0,10.0,75,0.00,,,0.00,Wunderground v.1.15,2013-01-20 06:07:00,
2013-01-20 00:12:00,49.3,41.7,30.22,WSW,239,5.0,10.0,75,0.00,,,0.00,Wunderground v.1.15,2013-01-20 06:12:00,
2013-01-20 00:18:00,49.2,41.6,30.22,SW,236,5.0,10.0,75,0.00,,,0.00,Wunderground v.1.15,2013-01-20 06:18:00,
2013-01-20 00:24:00,49.2,41.6,30.21,WSW,246,5.0,10.0,75,0.00,,,0.00,Wunderground v.1.15,2013-01-20 06:24:00,
2013-01-20 00:30:00,49.2,41.6,30.21,SW,225,5.0,5.0,75,0.00,,,0.00,Wunderground v.1.15,2013-01-20 06:30:00,
2013-01-20 00:35:00,49.1,41.5,30.21,SW,236,5.0,10.0,75,0.00,,,0.00,Wunderground v.1.15,2013-01-20 06:35:00,
2013-01-20 00:40:00,49.0,41.4,30.21,SW,231,4.0,10.0,75,0.00,,,0.00,Wunderground v.1.15,2013-01-20 06:40:00,
2013-01-20 00:46:00,48.9,41.3,30.21,SW,235,5.0,10.0,75,0.00,,,0.00,Wunderground v.1.15,2013-01-20 06:46:00,
2013-01-20 00:52:00,48.9,41.0,30.21,WSW,253,5.0,10.0,74,0.00,,,0.00,Wunderground v.1.15,2013-01-20 06:52:00,
2013-01-20 00:58:00,48.9,41.0,30.21,WSW,251,4.0,10.0,74,0.00,,,0.00,Wunderground v.1.15,2013-01-20 06:58:00,
2013-01-20 01:04:00,49.1,40.8,30.21,WSW,243,5.0,10.0,73,0.00,,,0.00,Wunderground v.1.15,2013-01-20 07:04:00,
2013-01-20 01:10:00,49.3,41.0,30.21,SW,231,5.0,5.0,73,0.00,,,0.00,Wunderground v.1.15,2013-01-20 07:10:00,
2013-01-20 01:16:00,49.4,40.7,30.21,WSW,253,4.0,10.0,72,0.00,,,0.00,Wunderground v.1.15,2013-01-20 07:16:00,
2013-01-20 01:21:00,49.4,40.7,30.21,WSW,253,4.0,10.0,72,0.00,,,0.00,Wunderground v.1.15,2013-01-20 07:21:00,
2013-01-20 01:27:00,49.4,40.7,30.21,WSW,246,4.0,10.0,72,0.00,,,0.00,Wunderground v.1.15,2013-01-20 07:27:00,
2013-01-20 01:32:00,49.6,40.9,30.21,West,262,3.0,10.0,72,0.00,,,0.00,Wunderground v.1.15,2013-01-20 07:32:00,
2013-01-20 01:38:00,49.7,40.7,30.21,WSW,253,2.0,10.0,71,0.00,,,0.00,Wunderground v.1.15,2013-01-20 07:38:00,
2013-01-20 01:44:00,49.6,40.6,30.21,WSW,252,2.0,10.0,71,0.00,,,0.00,Wunderground v.1.15,2013-01-20 07:44:00,
2013-01-20 01:50:00,49.5,40.5,30.21,WSW,250,2.0,10.0,71,0.00,,,0.00,Wunderground v.1.15,2013-01-20 07:50:00,
2013-01-20 01:56:00,49.7,40.7,30.21,WSW,256,3.0,10.0,71,0.00,,,0.00,Wunderground v.1.15,2013-01-20 07:56:00,
2013-01-20 02:02:00,49.8,40.8,30.21,West,279,2.0,10.0,71,0.00,,,0.00,Wunderground v.1.15,2013-01-20 08:02:00,
2013-01-20 02:07:00,49.7,40.7,30.21,West,276,1.0,10.0,71,0.00,,,0.00,Wunderground v.1.15,2013-01-20 08:07:00,
2013-01-20 02:12:00,49.4,40.4,30.21,West,273,1.0,10.0,71,0.00,,,0.00,Wunderground v.1.15,2013-01-20 08:12:00,
2013-01-20 02:18:00,49.2,40.6,30.21,West,272,1.0,10.0,72,0.00,,,0.00,Wunderground v.1.15,2013-01-20 08:18:00,
2013-01-20 02:24:00,48.9,40.3,30.21,West,281,1.0,10.0,72,0.00,,,0.00,Wunderground v.1.15,2013-01-20 08:24:00,
2013-01-20 02:30:00,49.2,40.6,30.21,WNW,284,1.0,10.0,72,0.00,,,0.00,Wunderground v.1.15,2013-01-20 08:30:00,
2013-01-20 02:35:00,49.2,40.6,30.22,WNW,284,1.0,10.0,72,0.00,,,0.00,Wunderground v.1.15,2013-01-20 08:35:00,
2013-01-20 02:41:00,48.4,39.8,30.22,SE,124,0.0,10.0,72,0.00,,,0.00,Wunderground v.1.15,2013-01-20 08:41:00,
2013-01-20 02:47:00,46.0,38.9,30.22,East,88,2.0,10.0,76,0.00,,,0.00,Wunderground v.1.15,2013-01-20 08:47:00,
2013-01-20 02:53:00,45.1,39.0,30.21,West,260,2.0,10.0,79,0.00,,,0.00,Wunderground v.1.15,2013-01-20 08:53:00,
2013-01-20 02:59:00,45.5,39.4,30.21,SW,234,2.0,10.0,79,0.00,,,0.00,Wunderground v.1.15,2013-01-20 08:59:00,
2013-01-20 03:05:00,45.1,38.6,30.21,East,100,2.0,10.0,78,0.00,,,0.00,Wunderground v.1.15,2013-01-20 09:05:00,
2013-01-20 03:11:00,43.6,38.2,30.22,East,96,2.0,10.0,81,0.00,,,0.00,Wunderground v.1.15,2013-01-20 09:11:00,
2013-01-20 03:16:00,42.9,38.1,30.21,East,96,1.0,10.0,83,0.00,,,0.00,Wunderground v.1.15,2013-01-20 09:16:00,
2013-01-20 03:21:00,43.0,38.8,30.21,ESE,113,0.0,10.0,85,0.00,,,0.00,Wunderground v.1.15,2013-01-20 09:21:00,
2013-01-20 03:26:00,44.0,39.5,30.21,West,260,1.0,10.0,84,0.00,,,0.00,Wunderground v.1.15,2013-01-20 09:26:00,
2013-01-20 03:31:00,45.2,39.7,30.21,West,267,2.0,10.0,81,0.00,,,0.00,Wunderground v.1.15,2013-01-20 09:31:00,
2013-01-20 03:36:00,45.8,39.7,30.21,West,277,3.0,10.0,79,0.00,,,0.00,Wunderground v.1.15,2013-01-20 09:36:00,
2013-01-20 03:42:00,45.7,39.6,30.20,West,280,3.0,10.0,79,0.00,,,0.00,Wunderground v.1.15,2013-01-20 09:42:00,
2013-01-20 03:47:00,45.7,39.6,30.20,West,280,3.0,10.0,79,0.00,,,0.00,Wunderground v.1.15,2013-01-20 09:47:00,
2013-01-20 03:52:00,45.9,39.8,30.20,West,281,4.0,10.0,79,0.00,,,0.00,Wunderground v.1.15,2013-01-20 09:52:00,
2013-01-20 03:57:00,46.2,40.0,30.20,WNW,291,4.0,10.0,79,0.00,,,0.00,Wunderground v.1.15,2013-01-20 09:57:00,
2013-01-20 04:03:00,46.3,39.8,30.20,WNW,295,5.0,10.0,78,0.00,,,0.00,Wunderground v.1.15,2013-01-20 10:03:00,
2013-01-20 04:08:00,45.7,39.6,30.20,West,281,5.0,10.0,79,0.00,,,0.00,Wunderground v.1.15,2013-01-20 10:08:00,
2013-01-20 04:14:00,45.6,39.5,30.19,West,277,4.0,10.0,79,0.00,,,0.00,Wunderground v.1.15,2013-01-20 10:14:00,
2013-01-20 04:19:00,45.8,40.0,30.19,West,278,4.0,10.0,80,0.00,,,0.00,Wunderground v.1.15,2013-01-20 10:19:00,
2013-01-20 04:24:00,46.1,39.9,30.19,West,281,4.0,10.0,79,0.00,,,0.00,Wunderground v.1.15,2013-01-20 10:24:00,
2013-01-20 04:29:00,46.4,40.2,30.19,West,263,4.0,10.0,79,0.00,,,0.00,Wunderground v.1.15,2013-01-20 10:29:00,
2013-01-20 04:35:00,46.9,40.4,30.20,WSW,253,3.0,10.0,78,0.00,,,0.00,Wunderground v.1.15,2013-01-20 10:35:00,
2013-01-20 04:40:00,47.1,40.3,30.20,ESE,108,2.0,2.0,77,0.00,,,0.00,Wunderground v.1.15,2013-01-20 10:40:00,
2013-01-20 04:45:00,45.2,38.4,30.19,SE,124,1.0,10.0,77,0.00,,,0.00,Wunderground v.1.15,2013-01-20 10:45:00,
2013-01-20 04:50:00,44.0,38.5,30.19,SSE,150,1.0,1.0,81,0.00,,,0.00,Wunderground v.1.15,2013-01-20 10:50:00,
2013-01-20 04:55:00,43.9,38.8,30.19,South,169,1.0,10.0,82,0.00,,,0.00,Wunderground v.1.15,2013-01-20 10:55:00,
2013-01-20 05:01:00,44.2,39.4,30.19,WSW,253,1.0,10.0,83,0.00,,,0.00,Wunderground v.1.15,2013-01-20 11:01:00,
2013-01-20 05:06:00,45.0,39.5,30.19,West,278,2.0,10.0,81,0.00,,,0.00,Wunderground v.1.15,2013-01-20 11:06:00,
2013-01-20 05:11:00,44.8,39.0,30.19,West,278,3.0,10.0,80,0.00,,,0.00,Wunderground v.1.15,2013-01-20 11:11:00,
2013-01-20 05:16:00,44.2,38.7,30.19,WNW,284,2.0,10.0,81,0.00,,,0.00,Wunderground v.1.15,2013-01-20 11:16:00,
2013-01-20 05:21:00,44.2,39.1,30.19,WSW,246,1.0,10.0,82,0.00,,,0.00,Wunderground v.1.15,2013-01-20 11:21:00,
2013-01-20 05:26:00,44.5,39.3,30.19,West,261,1.0,10.0,82,0.00,,,0.00,Wunderground v.1.15,2013-01-20 11:26:00,
2013-01-20 05:32:00,44.9,39.4,30.19,West,264,2.0,10.0,81,0.00,,,0.00,Wunderground v.1.15,2013-01-20 11:32:00,
2013-01-20 05:37:00,44.9,39.4,30.19,West,276,2.0,10.0,81,0.00,,,0.00,Wunderground v.1.15,2013-01-20 11:37:00,
2013-01-20 05:43:00,44.9,39.4,30.19,West,274,2.0,10.0,81,0.00,,,0.00,Wunderground v.1.15,2013-01-20 11:43:00,
2013-01-20 05:48:00,45.0,39.5,30.18,WNW,288,3.0,10.0,81,0.00,,,0.00,Wunderground v.1.15,2013-01-20 11:48:00,
2013-01-20 05:54:00,45.2,39.4,30.18,WNW,290,3.0,10.0,80,0.00,,,0.00,Wunderground v.1.15,2013-01-20 11:54:00,
2013-01-20 06:00:00,44.7,38.9,30.18,WNW,297,2.0,10.0,80,0.00,,,0.00,Wunderground v.1.15,2013-01-20 12:00:00,
2013-01-20 06:05:00,44.3,38.8,30.18,WNW,294,2.0,10.0,81,0.00,,,0.00,Wunderground v.1.15,2013-01-20 12:05:00,
2013-01-20 06:11:00,44.6,39.4,30.18,WNW,288,2.0,10.0,82,0.00,,,0.00,Wunderground v.1.15,2013-01-20 12:11:00,
2013-01-20 06:17:00,44.7,39.2,30.18,WNW,294,2.0,10.0,81,0.00,,,0.00,Wunderground v.1.15,2013-01-20 12:17:00,
2013-01-20 06:23:00,44.6,39.1,30.18,WNW,301,3.0,10.0,81,0.00,,,0.00,Wunderground v.1.15,2013-01-20 12:23:00,
2013-01-20 06:28:00,44.4,39.2,30.18,NW,306,3.0,10.0,82,0.00,,,0.00,Wunderground v.1.15,2013-01-20 12:28:00,
2013-01-20 06:34:00,44.6,39.1,30.18,NW,304,4.0,10.0,81,0.00,,,0.00,Wunderground v.1.15,2013-01-20 12:34:00,
2013-01-20 06:40:00,44.3,38.8,30.17,WNW,301,3.0,10.0,81,0.00,,,0.00,Wunderground v.1.15,2013-01-20 12:40:00,
2013-01-20 06:46:00,43.9,38.8,30.18,NW,306,3.0,10.0,82,0.00,,,0.00,Wunderground v.1.15,2013-01-20 12:46:00,
2013-01-20 06:52:00,43.7,38.6,30.18,NW,307,4.0,10.0,82,0.00,,,0.00,Wunderground v.1.15,2013-01-20 12:52:00,
2013-01-20 06:58:00,43.5,38.7,30.18,WNW,292,4.0,10.0,83,0.00,,,0.00,Wunderground v.1.15,2013-01-20 12:58:00,
2013-01-20 07:04:00,43.3,38.5,30.19,WNW,294,5.0,10.0,83,0.00,,,0.00,Wunderground v.1.15,2013-01-20 13:04:00,
2013-01-20 07:10:00,43.2,38.7,30.19,WNW,294,4.0,10.0,84,0.00,,,0.00,Wunderground v.1.15,2013-01-20 13:10:00,
2013-01-20 07:16:00,43.5,39.0,30.20,WNW,297,4.0,10.0,84,0.00,,,0.00,Wunderground v.1.15,2013-01-20 13:16:00,
2013-01-20 07:22:00,44.0,39.2,30.20,WNW,294,4.0,10.0,83,0.00,,,0.00,Wunderground v.1.15,2013-01-20 13:22:00,
2013-01-20 07:27:00,44.4,39.2,30.20,West,281,4.0,10.0,82,0.00,,,0.00,Wunderground v.1.15,2013-01-20 13:27:00,
2013-01-20 07:33:00,44.5,39.3,30.21,WSW,251,3.0,10.0,82,0.00,,,0.00,Wunderground v.1.15,2013-01-20 13:33:00,
2013-01-20 07:38:00,44.4,39.2,30.21,WSW,252,1.0,10.0,82,0.00,,,0.00,Wunderground v.1.15,2013-01-20 13:38:00,
2013-01-20 07:44:00,44.6,39.4,30.21,West,276,0.0,10.0,82,0.00,,,0.00,Wunderground v.1.15,2013-01-20 13:44:00,
2013-01-20 07:50:00,45.1,39.6,30.22,West,267,0.0,10.0,81,0.00,,,0.00,Wunderground v.1.15,2013-01-20 13:50:00,
2013-01-20 07:56:00,45.9,40.4,30.22,WNW,283,1.0,10.0,81,0.00,,,0.00,Wunderground v.1.15,2013-01-20 13:56:00,
2013-01-20 08:01:00,46.7,40.5,30.22,SW,225,2.0,10.0,79,0.00,,,0.00,Wunderground v.1.15,2013-01-20 14:01:00,
2013-01-20 08:07:00,47.2,40.7,30.22,SSW,208,1.0,10.0,78,0.00,,,0.00,Wunderground v.1.15,2013-01-20 14:07:00,
2013-01-20 08:12:00,47.5,40.6,30.22,SSW,208,0.0,10.0,77,0.00,,,0.00,Wunderground v.1.15,2013-01-20 14:12:00,
2013-01-20 08:18:00,48.1,41.2,30.22,WSW,256,0.0,10.0,77,0.00,,,0.00,Wunderground v.1.15,2013-01-20 14:18:00,
2013-01-20 08:23:00,49.6,42.0,30.22,WNW,284,1.0,10.0,75,0.00,,,0.00,Wunderground v.1.15,2013-01-20 14:23:00,
2013-01-20 08:29:00,51.2,42.5,30.22,WSW,250,4.0,10.0,72,0.00,,,0.00,Wunderground v.1.15,2013-01-20 14:29:00,
2013-01-20 08:35:00,52.3,42.4,30.22,West,280,5.0,10.0,69,0.00,,,0.00,Wunderground v.1.15,2013-01-20 14:35:00,
2013-01-20 08:41:00,53.4,43.1,30.22,West,267,5.0,10.0,68,0.00,,,0.00,Wunderground v.1.15,2013-01-20 14:41:00,
2013-01-20 08:47:00,54.4,43.3,30.22,West,276,5.0,10.0,66,0.00,,,0.00,Wunderground v.1.15,2013-01-20 14:47:00,
2013-01-20 08:53:00,55.3,42.9,30.22,WSW,253,5.0,10.0,63,0.00,,,0.00,Wunderground v.1.15,2013-01-20 14:53:00,
2013-01-20 08:59:00,56.0,43.2,30.22,West,267,6.0,10.0,62,0.00,,,0.00,Wunderground v.1.15,2013-01-20 14:59:00,
2013-01-20 09:05:00,56.5,43.2,30.22,WSW,249,6.0,10.0,61,0.00,,,0.00,Wunderground v.1.15,2013-01-20 15:05:00,
2013-01-20 09:11:00,56.8,43.1,30.22,WSW,252,6.0,10.0,60,0.00,,,0.00,Wunderground v.1.15,2013-01-20 15:11:00,
2013-01-20 09:17:00,57.1,42.9,30.23,WSW,250,6.0,10.0,59,0.00,,,0.00,Wunderground v.1.15,2013-01-20 15:17:00,
2013-01-20 09:23:00,57.3,43.5,30.23,West,269,6.0,10.0,60,0.00,,,0.00,Wunderground v.1.15,2013-01-20 15:23:00,
2013-01-20 09:29:00,57.3,42.6,30.23,West,281,7.0,10.0,58,0.00,,,0.00,Wunderground v.1.15,2013-01-20 15:29:00,
2013-01-20 09:35:00,57.3,42.6,30.23,WNW,290,7.0,10.0,58,0.00,,,0.00,Wunderground v.1.15,2013-01-20 15:35:00,
2013-01-20 09:41:00,57.1,42.0,30.23,West,264,7.0,10.0,57,0.00,,,0.00,Wunderground v.1.15,2013-01-20 15:41:00,
2013-01-20 09:47:00,56.4,41.8,30.24,West,259,9.0,11.0,58,0.00,,,0.00,Wunderground v.1.15,2013-01-20 15:47:00,
2013-01-20 09:52:00,56.8,42.2,30.24,WNW,297,9.0,13.0,58,0.00,,,0.00,Wunderground v.1.15,2013-01-20 15:52:00,
2013-01-20 09:58:00,56.9,41.8,30.24,West,264,8.0,13.0,57,0.00,,,0.00,Wunderground v.1.15,2013-01-20 15:58:00,
2013-01-20 10:04:00,57.2,42.1,30.24,West,274,9.0,12.0,57,0.00,,,0.00,Wunderground v.1.15,2013-01-20 16:04:00,
2013-01-20 10:10:00,57.7,42.1,30.24,West,266,9.0,9.0,56,0.00,,,0.00,Wunderground v.1.15,2013-01-20 16:10:00,
2013-01-20 10:16:00,58.2,42.6,30.24,West,262,9.0,12.0,56,0.00,,,0.00,Wunderground v.1.15,2013-01-20 16:16:00,
2013-01-20 10:22:00,58.9,42.8,30.24,WNW,295,9.0,10.0,55,0.00,,,0.00,Wunderground v.1.15,2013-01-20 16:22:00,
2013-01-20 10:28:00,59.3,42.2,30.24,West,274,9.0,13.0,53,0.00,,,0.00,Wunderground v.1.15,2013-01-20 16:28:00,
2013-01-20 10:34:00,59.7,42.5,30.24,WNW,295,9.0,11.0,53,0.00,,,0.00,Wunderground v.1.15,2013-01-20 16:34:00,
2013-01-20 10:40:00,60.1,42.4,30.24,West,260,9.0,10.0,52,0.00,,,0.00,Wunderground v.1.15,2013-01-20 16:40:00,
2013-01-20 10:45:00,60.5,43.3,30.24,WSW,250,9.0,11.0,53,0.00,,,0.00,Wunderground v.1.15,2013-01-20 16:45:00,
2013-01-20 10:51:00,61.0,42.7,30.24,WSW,249,9.0,10.0,51,0.00,,,0.00,Wunderground v.1.15,2013-01-20 16:51:00,
2013-01-20 10:57:00,61.3,42.5,30.24,WSW,255,9.0,11.0,50,0.00,,,0.00,Wunderground v.1.15,2013-01-20 16:57:00,
2013-01-20 11:03:00,61.5,42.7,30.24,West,267,9.0,13.0,50,0.00,,,0.00,Wunderground v.1.15,2013-01-20 17:03:00,
2013-01-20 11:09:00,61.6,42.2,30.24,West,270,11.0,16.0,49,0.00,,,0.00,Wunderground v.1.15,2013-01-20 17:09:00,
2013-01-20 11:15:00,61.8,41.9,30.24,WNW,282,11.0,13.0,48,0.00,,,0.00,Wunderground v.1.15,2013-01-20 17:15:00,
2013-01-20 11:21:00,62.2,42.3,30.24,West,278,11.0,16.0,48,0.00,,,0.00,Wunderground v.1.15,2013-01-20 17:21:00,
2013-01-20 11:27:00,62.6,42.6,30.23,West,277,11.0,16.0,48,0.00,,,0.00,Wunderground v.1.15,2013-01-20 17:27:00,
2013-01-20 11:33:00,62.8,42.8,30.23,West,262,11.0,13.0,48,0.00,,,0.00,Wunderground v.1.15,2013-01-20 17:33:00,
2013-01-20 11:39:00,62.8,42.3,30.22,WSW,252,12.0,16.0,47,0.00,,,0.00,Wunderground v.1.15,2013-01-20 17:39:00,
2013-01-20 11:45:00,62.7,42.7,30.22,West,271,12.0,16.0,48,0.00,,,0.00,Wunderground v.1.15,2013-01-20 17:45:00,
2013-01-20 11:51:00,63.0,43.0,30.21,West,271,12.0,12.0,48,0.00,,,0.00,Wunderground v.1.15,2013-01-20 17:51:00,
2013-01-20 11:57:00,63.4,42.8,30.21,West,278,11.0,15.0,47,0.00,,,0.00,Wunderground v.1.15,2013-01-20 17:57:00,
2013-01-20 12:02:00,63.8,43.2,30.20,WNW,288,10.0,11.0,47,0.00,,,0.00,Wunderground v.1.15,2013-01-20 18:02:00,
2013-01-20 12:08:00,64.1,43.4,30.20,West,262,10.0,12.0,47,0.00,,,0.00,Wunderground v.1.15,2013-01-20 18:08:00,
2013-01-20 12:14:00,64.6,43.3,30.20,WSW,243,9.0,12.0,46,0.00,,,0.00,Wunderground v.1.15,2013-01-20 18:14:00,
2013-01-20 12:20:00,65.0,43.1,30.19,WNW,283,9.0,9.0,45,0.00,,,0.00,Wunderground v.1.15,2013-01-20 18:20:00,
2013-01-20 12:26:00,65.4,43.5,30.19,West,264,9.0,11.0,45,0.00,,,0.00,Wunderground v.1.15,2013-01-20 18:26:00,
2013-01-20 12:32:00,65.6,43.1,30.18,WSW,253,9.0,10.0,44,0.00,,,0.00,Wunderground v.1.15,2013-01-20 18:32:00,
2013-01-20 12:38:00,65.8,43.3,30.18,West,271,9.0,13.0,44,0.00,,,0.00,Wunderground v.1.15,2013-01-20 18:38:00,
2013-01-20 12:44:00,65.3,42.8,30.17,West,271,10.0,13.0,44,0.00,,,0.00,Wunderground v.1.15,2013-01-20 18:44:00,
2013-01-20 12:50:00,65.3,42.8,30.17,West,269,9.0,10.0,44,0.00,,,0.00,Wunderground v.1.15,2013-01-20 18:50:00,
2013-01-20 12:56:00,65.6,43.1,30.16,West,270,8.0,10.0,44,0.00,,,0.00,Wunderground v.1.15,2013-01-20 18:56:00,
2013-01-20 13:01:00,65.9,42.8,30.16,West,278,8.0,10.0,43,0.00,,,0.00,Wunderground v.1.15,2013-01-20 19:01:00,
2013-01-20 13:07:00,65.8,43.3,30.15,WSW,249,8.0,10.0,44,0.00,,,0.00,Wunderground v.1.15,2013-01-20 19:07:00,
2013-01-20 13:13:00,66.1,42.9,30.15,West,259,8.0,12.0,43,0.00,,,0.00,Wunderground v.1.15,2013-01-20 19:13:00,
2013-01-20 13:19:00,66.3,42.5,30.15,WSW,249,9.0,13.0,42,0.00,,,0.00,Wunderground v.1.15,2013-01-20 19:19:00,
2013-01-20 13:25:00,66.3,41.9,30.14,West,267,9.0,10.0,41,0.00,,,0.00,Wunderground v.1.15,2013-01-20 19:25:00,
2013-01-20 13:31:00,66.9,41.8,30.13,West,264,7.0,10.0,40,0.00,,,0.00,Wunderground v.1.15,2013-01-20 19:31:00,
2013-01-20 13:37:00,67.0,41.9,30.13,WSW,246,8.0,11.0,40,0.00,,,0.00,Wunderground v.1.15,2013-01-20 19:37:00,
2013-01-20 13:43:00,67.4,40.9,30.13,WSW,240,8.0,13.0,38,0.00,,,0.00,Wunderground v.1.15,2013-01-20 19:43:00,
2013-01-20 13:49:00,67.7,41.8,30.13,West,262,9.0,13.0,39,0.00,,,0.00,Wunderground v.1.15,2013-01-20 19:49:00,
2013-01-20 13:54:00,68.0,41.4,30.13,WSW,253,8.0,12.0,38,0.00,,,0.00,Wunderground v.1.15,2013-01-20 19:54:00,
2013-01-20 14:00:00,68.1,40.8,30.12,WNW,288,8.0,10.0,37,0.00,,,0.00,Wunderground v.1.15,2013-01-20 20:00:00,
2013-01-20 14:06:00,68.2,40.2,30.12,West,278,8.0,10.0,36,0.00,,,0.00,Wunderground v.1.15,2013-01-20 20:06:00,
2013-01-20 14:12:00,68.4,41.1,30.12,WSW,252,7.0,11.0,37,0.00,,,0.00,Wunderground v.1.15,2013-01-20 20:12:00,
2013-01-20 14:18:00,68.4,41.1,30.11,SW,230,9.0,11.0,37,0.00,,,0.00,Wunderground v.1.15,2013-01-20 20:18:00,
2013-01-20 14:24:00,69.0,40.9,30.11,SW,230,8.0,10.0,36,0.00,,,0.00,Wunderground v.1.15,2013-01-20 20:24:00,
2013-01-20 14:30:00,69.1,41.0,30.11,SW,231,9.0,11.0,36,0.00,,,0.00,Wunderground v.1.15,2013-01-20 20:30:00,
2013-01-20 14:36:00,68.9,40.8,30.11,WSW,238,10.0,13.0,36,0.00,,,0.00,Wunderground v.1.15,2013-01-20 20:36:00,
2013-01-20 14:42:00,68.8,40.7,30.10,SW,229,10.0,14.0,36,0.00,,,0.00,Wunderground v.1.15,2013-01-20 20:42:00,
2013-01-20 14:47:00,68.8,40.0,30.10,West,274,9.0,14.0,35,0.00,,,0.00,Wunderground v.1.15,2013-01-20 20:47:00,
2013-01-20 14:52:00,69.2,41.1,30.10,West,281,8.0,10.0,36,0.00,,,0.00,Wunderground v.1.15,2013-01-20 20:52:00,
2013-01-20 14:57:00,69.3,40.5,30.10,WSW,256,9.0,14.0,35,0.00,,,0.00,Wunderground v.1.15,2013-01-20 20:57:00,
2013-01-20 15:02:00,69.3,40.5,30.10,WSW,257,10.0,10.0,35,0.00,,,0.00,Wunderground v.1.15,2013-01-20 21:02:00,
2013-01-20 15:08:00,69.7,40.1,30.09,WSW,247,9.0,14.0,34,0.00,,,0.00,Wunderground v.1.15,2013-01-20 21:08:00,
2013-01-20 15:14:00,69.8,40.2,30.09,WSW,256,9.0,10.0,34,0.00,,,0.00,Wunderground v.1.15,2013-01-20 21:14:00,
2013-01-20 15:20:00,69.8,39.4,30.09,WNW,289,8.0,8.0,33,0.00,,,0.00,Wunderground v.1.15,2013-01-20 21:20:00,
2013-01-20 15:26:00,70.0,39.6,30.09,West,259,8.0,12.0,33,0.00,,,0.00,Wunderground v.1.15,2013-01-20 21:26:00,
2013-01-20 15:32:00,70.0,39.6,30.09,WSW,257,9.0,10.0,33,0.00,,,0.00,Wunderground v.1.15,2013-01-20 21:32:00,
2013-01-20 15:38:00,70.1,39.6,30.09,West,260,9.0,10.0,33,0.00,,,0.00,Wunderground v.1.15,2013-01-20 21:38:00,
2013-01-20 15:44:00,70.1,38.0,30.08,West,270,8.0,10.0,31,0.00,,,0.00,Wunderground v.1.15,2013-01-20 21:44:00,
2013-01-20 15:49:00,70.3,38.2,30.08,West,269,9.0,11.0,31,0.00,,,0.00,Wunderground v.1.15,2013-01-20 21:49:00,
2013-01-20 15:55:00,70.3,37.4,30.08,West,272,9.0,12.0,30,0.00,,,0.00,Wunderground v.1.15,2013-01-20 21:55:00,
2013-01-20 16:01:00,70.3,38.2,30.08,West,266,9.0,10.0,31,0.00,,,0.00,Wunderground v.1.15,2013-01-20 22:01:00,
2013-01-20 16:07:00,70.3,37.4,30.09,West,280,8.0,12.0,30,0.00,,,0.00,Wunderground v.1.15,2013-01-20 22:07:00,
2013-01-20 16:13:00,70.4,38.3,30.09,WSW,249,8.0,10.0,31,0.00,,,0.00,Wunderground v.1.15,2013-01-20 22:13:00,
2013-01-20 16:19:00,70.4,37.5,30.08,SW,233,9.0,10.0,30,0.00,,,0.00,Wunderground v.1.15,2013-01-20 22:19:00,
2013-01-20 16:25:00,70.5,37.6,30.08,SW,221,8.0,10.0,30,0.00,,,0.00,Wunderground v.1.15,2013-01-20 22:25:00,
2013-01-20 16:30:00,70.5,37.6,30.08,SW,236,8.0,8.0,30,0.00,,,0.00,Wunderground v.1.15,2013-01-20 22:30:00,
2013-01-20 16:36:00,70.6,36.8,30.08,WSW,256,7.0,10.0,29,0.00,,,0.00,Wunderground v.1.15,2013-01-20 22:36:00,
2013-01-20 16:41:00,70.6,36.8,30.08,WSW,250,7.0,11.0,29,0.00,,,0.00,Wunderground v.1.15,2013-01-20 22:41:00,
2013-01-20 16:47:00,70.4,36.6,30.08,West,264,7.0,11.0,29,0.00,,,0.00,Wunderground v.1.15,2013-01-20 22:47:00,
2013-01-20 16:52:00,70.2,36.4,30.08,WSW,244,7.0,10.0,29,0.00,,,0.00,Wunderground v.1.15,2013-01-20 22:52:00,
2013-01-20 16:58:00,70.2,35.5,30.08,WNW,294,7.0,10.0,28,0.00,,,0.00,Wunderground v.1.15,2013-01-20 22:58:00,
2013-01-20 17:03:00,70.1,35.5,30.08,West,273,7.0,10.0,28,0.00,,,0.00,Wunderground v.1.15,2013-01-20 23:03:00,
2013-01-20 17:10:00,69.8,36.1,30.08,West,273,7.0,7.0,29,0.00,,,0.00,Wunderground v.1.15,2013-01-20 23:10:00,
2013-01-20 17:15:00,69.7,36.0,30.08,West,262,7.0,10.0,29,0.00,,,0.00,Wunderground v.1.15,2013-01-20 23:15:00,
2013-01-20 17:20:00,69.6,35.9,30.08,West,262,5.0,10.0,29,0.00,,,0.00,Wunderground v.1.15,2013-01-20 23:20:00,
2013-01-20 17:25:00,69.5,36.7,30.08,West,266,4.0,10.0,30,0.00,,,0.00,Wunderground v.1.15,2013-01-20 23:25:00,
2013-01-20 17:30:00,69.2,36.4,30.08,WSW,252,4.0,4.0,30,0.00,,,0.00,Wunderground v.1.15,2013-01-20 23:30:00,
2013-01-20 17:36:00,69.0,36.3,30.08,WSW,245,2.0,10.0,30,0.00,,,0.00,Wunderground v.1.15,2013-01-20 23:36:00,
2013-01-20 17:42:00,68.2,36.4,30.08,West,260,2.0,10.0,31,0.00,,,0.00,Wunderground v.1.15,2013-01-20 23:42:00,
2013-01-20 17:48:00,67.5,36.6,30.08,WSW,252,2.0,10.0,32,0.00,,,0.00,Wunderground v.1.15,2013-01-20 23:48:00,
2013-01-20 17:54:00,66.6,36.6,30.08,WSW,246,2.0,10.0,33,0.00,,,0.00,Wunderground v.1.15,2013-01-20 23:54:00,
2013-01-20 18:00:00,65.6,37.2,30.08,SW,235,1.0,10.0,35,0.00,,,0.00,Wunderground v.1.15,2013-01-21 00:00:00,
2013-01-20 18:06:00,64.7,37.1,30.08,SW,235,1.0,10.0,36,0.00,,,0.00,Wunderground v.1.15,2013-01-21 00:06:00,
2013-01-20 18:11:00,64.0,36.5,30.08,SW,235,1.0,10.0,36,0.00,,,0.00,Wunderground v.1.15,2013-01-21 00:11:00,
2013-01-20 18:16:00,63.3,37.2,30.08,SW,235,1.0,10.0,38,0.00,,,0.00,Wunderground v.1.15,2013-01-21 00:16:00,
2013-01-20 18:21:00,62.7,36.7,30.09,SW,235,1.0,10.0,38,0.00,,,0.00,Wunderground v.1.15,2013-01-21 00:21:00,
2013-01-20 18:27:00,62.2,36.9,30.09,SW,235,1.0,10.0,39,0.00,,,0.00,Wunderground v.1.15,2013-01-21 00:27:00,
2013-01-20 18:33:00,61.4,36.8,30.09,SW,235,1.0,10.0,40,0.00,,,0.00,Wunderground v.1.15,2013-01-21 00:33:00,
2013-01-20 18:38:00,60.7,37.5,30.09,SW,235,1.0,10.0,42,0.00,,,0.00,Wunderground v.1.15,2013-01-21 00:38:00,
2013-01-20 18:44:00,59.6,37.1,30.09,SW,235,2.0,10.0,43,0.00,,,0.00,Wunderground v.1.15,2013-01-21 00:44:00,
2013-01-20 18:50:00,58.7,37.4,30.09,SW,226,2.0,10.0,45,0.00,,,0.00,Wunderground v.1.15,2013-01-21 00:50:00,
2013-01-20 18:56:00,57.9,37.2,30.09,WSW,243,2.0,10.0,46,0.00,,,0.00,Wunderground v.1.15,2013-01-21 00:56:00,
2013-01-20 19:02:00,57.5,37.4,30.10,SW,234,2.0,10.0,47,0.00,,,0.00,Wunderground v.1.15,2013-01-21 01:02:00,
2013-01-20 19:08:00,57.3,37.8,30.10,SW,232,2.0,10.0,48,0.00,,,0.00,Wunderground v.1.15,2013-01-21 01:08:00,
2013-01-20 19:14:00,57.2,37.7,30.10,SW,235,2.0,10.0,48,0.00,,,0.00,Wunderground v.1.15,2013-01-21 01:14:00,
2013-01-20 19:20:00,57.0,38.0,30.10,SW,217,2.0,10.0,49,0.00,,,0.00,Wunderground v.1.15,2013-01-21 01:20:00,
2013-01-20 19:26:00,56.9,39.4,30.10,SW,221,3.0,10.0,52,0.00,,,0.00,Wunderground v.1.15,2013-01-21 01:26:00,
2013-01-20 19:32:00,56.8,39.4,30.10,SW,217,3.0,10.0,52,0.00,,,0.00,Wunderground v.1.15,2013-01-21 01:32:00,
2013-01-20 19:37:00,56.7,39.7,30.10,SW,217,3.0,10.0,53,0.00,,,0.00,Wunderground v.1.15,2013-01-21 01:37:00,
2013-01-20 19:42:00,56.6,40.1,30.10,SW,214,3.0,10.0,54,0.00,,,0.00,Wunderground v.1.15,2013-01-21 01:42:00,
2013-01-20 19:47:00,56.5,41.0,30.10,SSW,205,3.0,10.0,56,0.00,,,0.00,Wunderground v.1.15,2013-01-21 01:47:00,
2013-01-20 19:52:00,56.5,41.9,30.10,SW,224,3.0,10.0,58,0.00,,,0.00,Wunderground v.1.15,2013-01-21 01:52:00,
2013-01-20 19:58:00,56.4,42.2,30.10,SSW,211,4.0,10.0,59,0.00,,,0.00,Wunderground v.1.15,2013-01-21 01:58:00,
2013-01-20 20:04:00,56.2,42.9,30.11,SW,236,4.0,10.0,61,0.00,,,0.00,Wunderground v.1.15,2013-01-21 02:04:00,
2013-01-20 20:10:00,56.2,43.3,30.11,SW,232,4.0,10.0,62,0.00,,,0.00,Wunderground v.1.15,2013-01-21 02:10:00,
2013-01-20 20:16:00,56.0,44.0,30.11,SW,225,4.0,10.0,64,0.00,,,0.00,Wunderground v.1.15,2013-01-21 02:16:00,
2013-01-20 20:22:00,56.1,44.1,30.11,SW,228,5.0,10.0,64,0.00,,,0.00,Wunderground v.1.15,2013-01-21 02:22:00,
2013-01-20 20:27:00,56.2,44.6,30.11,WSW,243,5.0,10.0,65,0.00,,,0.00,Wunderground v.1.15,2013-01-21 02:27:00,
2013-01-20 20:33:00,56.2,44.6,30.11,WSW,238,5.0,10.0,65,0.00,,,0.00,Wunderground v.1.15,2013-01-21 02:33:00,
2013-01-20 20:38:00,56.1,44.9,30.11,SW,236,5.0,10.0,66,0.00,,,0.00,Wunderground v.1.15,2013-01-21 02:38:00,
2013-01-20 20:43:00,56.1,44.9,30.11,WSW,248,5.0,10.0,66,0.00,,,0.00,Wunderground v.1.15,2013-01-21 02:43:00,
2013-01-20 20:49:00,55.7,44.9,30.11,SW,224,4.0,10.0,67,0.00,,,0.00,Wunderground v.1.15,2013-01-21 02:49:00,
2013-01-20 20:55:00,55.7,45.3,30.11,SW,229,4.0,10.0,68,0.00,,,0.00,Wunderground v.1.15,2013-01-21 02:55:00,
2013-01-20 21:00:00,56.0,45.6,30.11,WSW,245,5.0,10.0,68,0.00,,,0.00,Wunderground v.1.15,2013-01-21 03:00:00,
2013-01-20 21:05:00,56.0,45.6,30.11,WSW,252,5.0,10.0,68,0.00,,,0.00,Wunderground v.1.15,2013-01-21 03:05:00,
2013-01-20 21:11:00,56.0,45.6,30.12,WSW,239,5.0,10.0,68,0.00,,,0.00,Wunderground v.1.15,2013-01-21 03:11:00,
2013-01-20 21:17:00,55.7,45.7,30.12,SW,228,5.0,10.0,69,0.00,,,0.00,Wunderground v.1.15,2013-01-21 03:17:00,
2013-01-20 21:22:00,55.8,45.8,30.12,SW,217,5.0,10.0,69,0.00,,,0.00,Wunderground v.1.15,2013-01-21 03:22:00,
2013-01-20 21:28:00,55.9,45.9,30.12,SW,226,5.0,10.0,69,0.00,,,0.00,Wunderground v.1.15,2013-01-21 03:28:00,
2013-01-20 21:34:00,55.4,45.8,30.12,SW,226,4.0,10.0,70,0.00,,,0.00,Wunderground v.1.15,2013-01-21 03:34:00,
2013-01-20 21:39:00,55.1,45.9,30.12,WSW,243,5.0,10.0,71,0.00,,,0.00,Wunderground v.1.15,2013-01-21 03:39:00,
2013-01-20 21:45:00,55.1,45.9,30.12,WSW,243,5.0,10.0,71,0.00,,,0.00,Wunderground v.1.15,2013-01-21 03:45:00,
2013-01-20 21:50:00,55.0,45.8,30.13,WSW,249,5.0,5.0,71,0.00,,,0.00,Wunderground v.1.15,2013-01-21 03:50:00,
2013-01-20 21:56:00,55.0,45.8,30.13,WSW,253,5.0,10.0,71,0.00,,,0.00,Wunderground v.1.15,2013-01-21 03:56:00,
2013-01-20 22:02:00,55.0,45.8,30.13,WSW,249,5.0,10.0,71,0.00,,,0.00,Wunderground v.1.15,2013-01-21 04:02:00,
2013-01-20 22:08:00,54.9,46.0,30.13,WSW,242,4.0,10.0,72,0.00,,,0.00,Wunderground v.1.15,2013-01-21 04:08:00,
2013-01-20 22:13:00,54.8,45.9,30.13,West,273,5.0,10.0,72,0.00,,,0.00,Wunderground v.1.15,2013-01-21 04:13:00,
2013-01-20 22:19:00,54.8,45.9,30.13,WSW,256,5.0,10.0,72,0.00,,,0.00,Wunderground v.1.15,2013-01-21 04:19:00,
2013-01-20 22:25:00,54.5,45.7,30.14,SW,236,5.0,10.0,72,0.00,,,0.00,Wunderground v.1.15,2013-01-21 04:25:00,
2013-01-20 22:30:00,54.3,45.8,30.13,WSW,252,5.0,5.0,73,0.00,,,0.00,Wunderground v.1.15,2013-01-21 04:30:00,
2013-01-20 22:36:00,54.2,45.7,30.13,WSW,252,5.0,10.0,73,0.00,,,0.00,Wunderground v.1.15,2013-01-21 04:36:00,
2013-01-20 22:42:00,54.2,45.7,30.13,WSW,249,6.0,10.0,73,0.00,,,0.00,Wunderground v.1.15,2013-01-21 04:42:00,
2013-01-20 22:48:00,53.9,45.8,30.13,WSW,238,6.0,10.0,74,0.00,,,0.00,Wunderground v.1.15,2013-01-21 04:48:00,
2013-01-20 22:54:00,53.9,45.8,30.14,WSW,241,6.0,10.0,74,0.00,,,0.00,Wunderground v.1.15,2013-01-21 04:54:00,
2013-01-20 23:01:00,53.7,45.6,30.13,WSW,240,6.0,10.0,74,0.00,,,0.00,Wunderground v.1.15,2013-01-21 05:01:00,
2013-01-20 23:02:00,53.7,45.6,30.13,WSW,248,6.0,10.0,74,0.00,,,0.00,Wunderground v.1.15,2013-01-21 05:02:00,
2013-01-20 23:03:00,53.7,45.6,30.13,WSW,252,6.0,10.0,74,0.00,,,0.00,Wunderground v.1.15,2013-01-21 05:03:00,
2013-01-20 23:05:00,53.6,45.9,30.13,SW,233,6.0,10.0,75,0.00,,,0.00,Wunderground v.1.15,2013-01-21 05:05:00,
2013-01-20 23:11:00,53.4,45.7,30.13,WSW,252,5.0,10.0,75,0.00,,,0.00,Wunderground v.1.15,2013-01-21 05:11:00,
2013-01-20 23:16:00,53.4,45.7,30.13,SW,233,5.0,10.0,75,0.00,,,0.00,Wunderground v.1.15,2013-01-21 05:16:00,
2013-01-20 23:22:00,53.4,45.7,30.13,WSW,240,5.0,10.0,75,0.00,,,0.00,Wunderground v.1.15,2013-01-21 05:22:00,
2013-01-20 23:28:00,53.2,45.8,30.13,West,260,5.0,10.0,76,0.00,,,0.00,Wunderground v.1.15,2013-01-21 05:28:00,
2013-01-20 23:33:00,53.1,45.7,30.13,WSW,246,5.0,10.0,76,0.00,,,0.00,Wunderground v.1.15,2013-01-21 05:33:00,
2013-01-20 23:38:00,53.3,45.9,30.13,WSW,243,5.0,10.0,76,0.00,,,0.00,Wunderground v.1.15,2013-01-21 05:38:00,
2013-01-20 23:44:00,53.6,46.2,30.13,WSW,250,5.0,10.0,76,0.00,,,0.00,Wunderground v.1.15,2013-01-21 05:44:00,
2013-01-20 23:50:00,53.5,45.8,30.13,WSW,243,5.0,10.0,75,0.00,,,0.00,Wunderground v.1.15,2013-01-21 05:50:00,
2013-01-20 23:55:00,53.3,45.9,30.13,WSW,245,5.0,10.0,76,0.00,,,0.00,Wunderground v.1.15,2013-01-21 05:55:00,